createdAt,value
2019-04-06T00:01:40.110Z,15.90
2019-04-06T00:04:08.161Z,14.90
2019-04-06T00:06:36.465Z,16.63
2019-04-06T00:09:06.079Z,16.17
2019-04-06T00:11:33.927Z,16.27
2019-04-06T00:14:01.751Z,16.53
2019-04-06T00:16:29.798Z,15.47
2019-04-06T00:19:00.551Z,16.50
2019-04-06T00:21:30.472Z,15.77
2019-04-06T00:23:58.236Z,16.20
2019-04-06T00:26:26.075Z,16.70
2019-04-06T00:28:53.879Z,16.33
2019-04-06T00:31:58.975Z,15.80
2019-04-06T00:34:26.924Z,15.53
2019-04-06T00:36:54.956Z,16.20
2019-04-06T00:39:23.130Z,15.93
2019-04-06T00:41:51.546Z,16.60
2019-04-06T00:44:22.083Z,16.83
2019-04-06T00:46:50.266Z,16.27
2019-04-06T00:49:18.976Z,15.83
2019-04-06T00:51:49.870Z,15.83
2019-04-06T00:54:17.876Z,15.80
2019-04-06T00:56:45.959Z,15.90
2019-04-06T00:59:15.338Z,15.83
2019-04-06T01:01:46.530Z,17.47
2019-04-06T01:04:14.408Z,16.23
2019-04-06T01:06:42.914Z,16.60
2019-04-06T01:09:12.560Z,16.13
2019-04-06T01:11:40.402Z,16.30
2019-04-06T01:14:10.792Z,16.07
2019-04-06T01:16:38.551Z,15.30
2019-04-06T01:19:07.909Z,15.70
2019-04-06T01:21:35.832Z,16.97
2019-04-06T01:24:05.398Z,16.00
2019-04-06T01:26:34.678Z,16.73
2019-04-06T01:29:02.619Z,16.37
2019-04-06T01:31:30.679Z,15.07
2019-04-06T01:33:59.125Z,15.67
2019-04-06T01:36:28.529Z,15.43
2019-04-06T01:38:57.459Z,16.00
2019-04-06T01:41:25.899Z,16.10
2019-04-06T01:43:57.238Z,15.83
2019-04-06T01:46:25.380Z,15.50
2019-04-06T01:48:53.924Z,16.70
2019-04-06T01:51:22.721Z,15.63
2019-04-06T01:53:51.433Z,16.00
2019-04-06T01:56:19.677Z,15.67
2019-04-06T01:58:47.987Z,15.80
2019-04-06T02:01:32.360Z,15.60
2019-04-06T02:04:00.673Z,15.67
2019-04-06T02:06:30.537Z,15.10
2019-04-06T02:08:59.288Z,16.53
2019-04-06T02:11:27.351Z,15.60
2019-04-06T02:13:58.460Z,15.83
2019-04-06T02:16:27.266Z,15.60
2019-04-06T02:18:57.072Z,16.03
2019-04-06T02:21:26.355Z,16.20
2019-04-06T02:23:55.016Z,16.27
2019-04-06T02:26:30.382Z,15.27
2019-04-06T02:28:53.412Z,15.53
2019-04-06T02:31:39.150Z,15.97
2019-04-06T02:34:36.755Z,15.63
2019-04-06T02:37:22.760Z,15.10
2019-04-06T02:40:23.466Z,15.47
2019-04-06T02:42:59.808Z,15.63
2019-04-06T02:45:28.087Z,16.07
2019-04-06T02:47:56.274Z,15.97
2019-04-06T02:50:24.643Z,15.30
2019-04-06T02:52:52.721Z,15.43
2019-04-06T02:55:21.003Z,16.03
2019-04-06T02:57:49.486Z,15.30
2019-04-06T03:00:17.582Z,15.93
2019-04-06T03:02:45.414Z,15.83
2019-04-06T03:05:13.682Z,15.03
2019-04-06T03:07:41.978Z,16.80
2019-04-06T03:10:10.221Z,14.97
2019-04-06T03:12:38.353Z,15.53
2019-04-06T03:15:06.493Z,16.17
2019-04-06T03:17:35.662Z,15.77
2019-04-06T03:20:04.644Z,16.23
2019-04-06T03:22:35.512Z,16.37
2019-04-06T03:25:04.082Z,16.47
2019-04-06T03:27:33.647Z,16.07
2019-04-06T03:30:04.325Z,16.17
2019-04-06T03:32:33.342Z,16.60
2019-04-06T03:35:02.365Z,15.90
2019-04-06T03:37:30.822Z,16.63
2019-04-06T03:39:58.964Z,15.97
2019-04-06T03:42:27.220Z,17.03
2019-04-06T03:44:56.373Z,17.00
2019-04-06T03:47:24.311Z,16.47
2019-04-06T03:49:52.390Z,17.03
2019-04-06T03:52:22.925Z,16.80
2019-04-06T03:54:53.245Z,16.70
2019-04-06T03:57:21.265Z,16.57
2019-04-06T03:59:49.296Z,16.40
2019-04-06T04:02:17.092Z,16.70
2019-04-06T04:07:15.265Z,16.90
2019-04-06T04:09:43.866Z,15.73
2019-04-06T04:12:11.889Z,16.67
2019-04-06T04:14:40.023Z,16.60
2019-04-06T04:17:08.388Z,17.10
2019-04-06T04:19:36.511Z,16.80
2019-04-06T04:22:04.703Z,16.83
2019-04-06T04:24:33.957Z,16.90
2019-04-06T04:27:02.965Z,15.83
2019-04-06T04:29:31.080Z,16.67
2019-04-06T04:32:01.201Z,16.93
2019-04-06T04:34:29.666Z,17.83
2019-04-06T04:37:14.107Z,17.00
2019-04-06T04:39:44.357Z,17.13
2019-04-06T04:42:15.522Z,17.33
2019-04-06T04:44:44.321Z,17.67
2019-04-06T04:47:12.648Z,17.90
2019-04-06T04:49:40.524Z,18.17
2019-04-06T04:52:08.854Z,17.40
2019-04-06T04:54:37.172Z,17.80
2019-04-06T04:57:05.350Z,17.03
2019-04-06T04:59:33.798Z,18.13
2019-04-06T05:02:04.017Z,17.60
2019-04-06T05:04:32.028Z,17.13
2019-04-06T05:07:04.274Z,17.97
2019-04-06T05:09:32.467Z,18.50
2019-04-06T05:12:00.548Z,18.93
2019-04-06T05:15:03.277Z,17.47
2019-04-06T05:17:31.250Z,17.27
2019-04-06T05:19:59.018Z,17.70
2019-04-06T05:22:28.141Z,17.70
2019-04-06T05:24:56.533Z,18.00
2019-04-06T05:27:25.341Z,16.90
2019-04-06T05:29:53.572Z,16.33
2019-04-06T05:32:21.580Z,17.07
2019-04-06T05:34:49.400Z,17.40
2019-04-06T05:37:17.029Z,17.43
2019-04-06T05:39:45.153Z,16.83
2019-04-06T05:42:13.181Z,16.57
2019-04-06T05:44:41.276Z,17.57
2019-04-06T05:47:11.228Z,17.40
2019-04-06T05:49:38.955Z,17.83
2019-04-06T05:52:06.836Z,17.60
2019-04-06T05:54:34.893Z,17.20
2019-04-06T05:57:02.678Z,16.70
2019-04-06T05:59:30.887Z,17.40
2019-04-06T06:01:58.660Z,16.87
2019-04-06T06:04:27.075Z,17.00
2019-04-06T06:06:55.948Z,15.97
2019-04-06T06:09:23.641Z,16.27
2019-04-06T06:11:55.602Z,17.00
2019-04-06T06:14:26.479Z,16.67
2019-04-06T06:16:54.323Z,15.43
2019-04-06T06:19:22.173Z,15.80
2019-04-06T06:21:52.327Z,15.33
2019-04-06T06:24:22.179Z,15.50
2019-04-06T06:26:49.874Z,15.57
2019-04-06T06:29:20.219Z,14.87
2019-04-06T06:31:48.345Z,15.10
2019-04-06T06:34:16.257Z,14.97
2019-04-06T06:36:49.860Z,14.97
2019-04-06T06:39:18.355Z,14.90
2019-04-06T06:41:46.234Z,15.07
2019-04-06T06:44:16.012Z,15.80
2019-04-06T06:46:48.491Z,15.03
2019-04-06T06:49:18.910Z,15.53
2019-04-06T06:51:49.093Z,15.23
2019-04-06T06:54:16.789Z,14.77
2019-04-06T06:56:44.548Z,14.70
2019-04-06T06:59:12.521Z,14.83
2019-04-06T07:01:40.553Z,14.53
2019-04-06T07:04:11.037Z,15.13
2019-04-06T07:06:39.326Z,15.43
2019-04-06T07:09:10.330Z,14.63
2019-04-06T07:11:38.339Z,15.80
2019-04-06T07:14:06.751Z,14.37
2019-04-06T07:16:34.921Z,13.90
2019-04-06T07:19:06.425Z,14.80
2019-04-06T07:21:34.644Z,13.70
2019-04-06T07:24:05.705Z,14.30
2019-04-06T07:26:34.643Z,14.30
2019-04-06T07:29:03.734Z,14.73
2019-04-06T07:31:31.527Z,14.20
2019-04-06T07:33:59.344Z,13.20
2019-04-06T07:36:30.495Z,14.20
2019-04-06T07:38:59.787Z,13.93
2019-04-06T07:41:32.897Z,13.57
2019-04-06T07:44:01.368Z,14.30
2019-04-06T07:46:29.498Z,14.37
2019-04-06T07:49:07.760Z,14.27
2019-04-06T07:51:30.360Z,14.33
2019-04-06T07:53:58.235Z,13.83
2019-04-06T07:56:25.953Z,13.47
2019-04-06T07:58:54.522Z,14.33
2019-04-06T08:01:22.500Z,13.37
2019-04-06T08:03:51.608Z,14.33
2019-04-06T08:06:20.261Z,13.77
2019-04-06T08:08:48.146Z,14.43
2019-04-06T08:11:17.707Z,13.40
2019-04-06T08:13:45.715Z,13.77
2019-04-06T08:16:14.913Z,14.00
2019-04-06T08:18:42.717Z,12.50
2019-04-06T08:21:16.377Z,12.90
2019-04-06T08:23:44.460Z,11.97
2019-04-06T08:26:12.300Z,12.07
2019-04-06T08:28:40.179Z,11.07
2019-04-06T08:31:08.472Z,11.57
2019-04-06T08:33:36.448Z,11.70
2019-04-06T08:36:05.415Z,10.70
2019-04-06T08:38:33.181Z,11.50
2019-04-06T08:41:00.864Z,10.13
2019-04-06T08:43:28.752Z,11.13
2019-04-06T08:45:56.643Z,10.07
2019-04-06T08:48:24.992Z,11.30
2019-04-06T08:50:52.912Z,11.27
2019-04-06T08:53:20.918Z,10.40
2019-04-06T08:55:48.834Z,9.40
2019-04-06T08:58:19.426Z,10.70
2019-04-06T09:00:48.031Z,9.77
2019-04-06T09:03:18.583Z,10.20
2019-04-06T09:05:46.629Z,11.03
2019-04-06T09:08:17.210Z,10.17
2019-04-06T09:10:45.017Z,10.13
2019-04-06T09:13:16.042Z,9.60
2019-04-06T09:15:46.256Z,10.00
2019-04-06T09:18:14.060Z,10.00
2019-04-06T09:20:41.881Z,10.53
2019-04-06T09:23:10.034Z,9.77
2019-04-06T09:25:39.350Z,10.50
2019-04-06T09:28:11.495Z,10.93
2019-04-06T09:30:46.956Z,9.33
2019-04-06T09:33:14.753Z,9.80
2019-04-06T09:35:42.589Z,8.97
2019-04-06T09:38:20.300Z,9.27
2019-04-06T09:40:48.792Z,9.20
2019-04-06T09:43:19.940Z,10.43
2019-04-06T09:46:16.309Z,9.73
2019-04-06T09:48:55.262Z,9.57
2019-04-06T09:51:45.943Z,9.73
2019-04-06T09:54:43.372Z,10.57
2019-04-06T09:57:28.618Z,9.27
2019-04-06T10:00:14.271Z,9.53
2019-04-06T10:02:51.072Z,9.53
2019-04-06T10:05:50.743Z,9.43
2019-04-06T10:08:27.176Z,10.03
2019-04-06T10:11:14.503Z,9.37
2019-04-06T10:14:14.010Z,8.97
2019-04-06T10:17:06.799Z,10.13
2019-04-06T10:19:48.808Z,10.00
2019-04-06T10:22:35.658Z,10.27
2019-04-06T10:25:22.772Z,9.80
2019-04-06T10:28:06.844Z,9.87
2019-04-06T10:30:53.672Z,9.17
2019-04-06T10:33:41.053Z,9.13
2019-04-06T10:36:27.044Z,9.37
2019-04-06T10:39:16.114Z,9.03
2019-04-06T10:42:04.721Z,9.40
2019-04-06T10:45:10.650Z,9.00
2019-04-06T10:48:03.575Z,9.73
2019-04-06T10:50:59.613Z,9.57
2019-04-06T10:53:58.818Z,9.53
2019-04-06T10:56:56.866Z,9.03
2019-04-06T11:00:00.634Z,9.40
2019-04-06T11:02:40.342Z,9.97
2019-04-06T11:05:33.588Z,10.87
2019-04-06T11:08:21.174Z,9.67
2019-04-06T11:11:06.725Z,10.10
2019-04-06T11:14:03.068Z,10.17
2019-04-06T11:16:56.620Z,10.13
2019-04-06T11:19:47.210Z,10.80
2019-04-06T11:22:21.335Z,10.03
2019-04-06T11:25:20.627Z,9.40
2019-04-06T11:28:08.671Z,10.07
2019-04-06T11:31:11.348Z,9.67
2019-04-06T11:33:57.486Z,9.73
2019-04-06T11:36:45.710Z,10.07
2019-04-06T11:39:23.685Z,9.60
2019-04-06T11:42:10.937Z,9.63
2019-04-06T11:44:58.416Z,9.53
2019-04-06T11:47:49.640Z,10.40
2019-04-06T11:50:36.765Z,10.47
2019-04-06T11:53:24.326Z,9.73
2019-04-06T11:56:00.213Z,9.57
2019-04-06T11:58:38.134Z,9.63
2019-04-06T12:01:28.295Z,9.67
2019-04-06T12:04:33.624Z,9.83
2019-04-06T12:07:17.027Z,9.37
2019-04-06T12:09:54.245Z,10.37
2019-04-06T12:12:33.976Z,9.70
2019-04-06T12:15:24.413Z,9.73
2019-04-06T12:17:59.750Z,10.60
2019-04-06T12:20:45.676Z,9.47
2019-04-06T12:23:33.208Z,9.73
2019-04-06T12:26:26.087Z,9.80
2019-04-06T12:29:12.284Z,9.23
2019-04-06T12:32:25.624Z,8.97
2019-04-06T12:35:12.643Z,9.27
2019-04-06T12:38:17.132Z,8.83
2019-04-06T12:41:07.553Z,8.83
2019-04-06T12:43:54.756Z,9.37
2019-04-06T12:46:40.455Z,9.63
2019-04-06T12:49:26.744Z,9.10
2019-04-06T12:52:20.713Z,10.40
2019-04-06T12:55:12.395Z,9.53
2019-04-06T12:58:03.738Z,9.10
2019-04-06T13:01:01.709Z,9.63
2019-04-06T13:03:40.254Z,9.73
2019-04-06T13:06:30.892Z,9.10
2019-04-06T13:09:18.405Z,9.27
2019-04-06T13:11:59.659Z,9.70
2019-04-06T13:14:36.390Z,9.33
2019-04-06T13:17:14.059Z,9.03
2019-04-06T13:19:48.921Z,9.80
2019-04-06T13:22:42.368Z,10.17
2019-04-06T13:25:39.556Z,9.90
2019-04-06T13:28:23.133Z,10.10
2019-04-06T13:31:13.148Z,11.20
2019-04-06T13:34:06.245Z,10.00
2019-04-06T13:36:52.189Z,9.87
2019-04-06T13:39:37.549Z,9.50
2019-04-06T13:42:27.860Z,10.07
2019-04-06T13:45:12.654Z,9.93
2019-04-06T13:47:48.961Z,10.30
2019-04-06T13:50:34.022Z,10.40
2019-04-06T13:53:20.831Z,10.23
2019-04-06T13:55:56.372Z,10.73
2019-04-06T13:58:35.554Z,10.47
2019-04-06T14:01:19.044Z,10.70
2019-04-06T14:04:03.005Z,10.67
2019-04-06T14:06:53.690Z,9.83
2019-04-06T14:09:41.305Z,10.90
2019-04-06T14:12:27.263Z,10.40
2019-04-06T14:15:11.584Z,11.40
2019-04-06T14:17:54.517Z,11.13
2019-04-06T14:20:47.928Z,10.73
2019-04-06T14:23:39.998Z,11.03
2019-04-06T14:26:27.452Z,10.93
2019-04-06T14:29:02.950Z,10.10
2019-04-06T14:31:56.193Z,10.50
2019-04-06T14:34:46.290Z,11.30
2019-04-06T14:37:39.329Z,11.10
2019-04-06T14:40:36.178Z,10.63
2019-04-06T14:43:26.221Z,11.43
2019-04-06T14:46:12.106Z,11.03
2019-04-06T14:48:52.754Z,10.83
2019-04-06T14:51:30.186Z,11.80
2019-04-06T14:54:20.668Z,11.40
2019-04-06T14:57:08.142Z,10.87
2019-04-06T14:59:58.012Z,10.37
2019-04-06T15:02:45.236Z,11.20
2019-04-06T15:05:21.063Z,11.40
2019-04-06T15:08:15.018Z,11.33
2019-04-06T15:10:53.962Z,12.40
2019-04-06T15:13:50.271Z,11.67
2019-04-06T15:16:40.544Z,12.13
2019-04-06T15:19:36.886Z,12.00
2019-04-06T15:22:22.373Z,12.30
2019-04-06T15:24:59.405Z,11.90
2019-04-06T15:27:52.735Z,12.50
2019-04-06T15:30:36.124Z,12.20
2019-04-06T15:33:23.888Z,12.53
2019-04-06T15:36:09.891Z,12.17
2019-04-06T15:38:56.449Z,13.17
2019-04-06T15:41:54.780Z,11.47
2019-04-06T15:44:33.202Z,12.50
2019-04-06T15:47:21.720Z,11.60
2019-04-06T15:50:07.707Z,10.87
2019-04-06T15:52:53.388Z,12.03
2019-04-06T15:55:30.071Z,11.73
2019-04-06T15:58:14.246Z,11.97
2019-04-06T16:00:55.135Z,12.57
2019-04-06T16:03:34.680Z,12.03
2019-04-06T16:06:21.187Z,11.73
2019-04-06T16:09:02.509Z,12.13
2019-04-06T16:11:52.792Z,11.00
2019-04-06T16:14:38.402Z,11.90
2019-04-06T16:17:14.802Z,11.77
2019-04-06T16:20:20.190Z,12.10
2019-04-06T16:23:01.411Z,11.67
2019-04-06T16:26:03.533Z,11.73
2019-04-06T16:28:51.253Z,10.80
2019-04-06T16:31:38.968Z,10.03
2019-04-06T16:34:39.974Z,10.87
2019-04-06T16:37:18.336Z,13.53
2019-04-06T16:40:12.972Z,13.30
2019-04-06T16:43:00.707Z,13.20
2019-04-06T16:45:42.175Z,11.30
2019-04-06T16:48:35.607Z,11.30
2019-04-06T16:51:23.532Z,10.97
2019-04-06T16:54:31.765Z,11.43
2019-04-06T16:57:15.204Z,11.77
2019-04-06T17:00:19.592Z,11.60
2019-04-06T17:03:02.123Z,12.20
2019-04-06T17:05:48.523Z,12.30
2019-04-06T17:08:26.358Z,12.63
2019-04-06T17:11:16.709Z,12.80
2019-04-06T17:14:02.571Z,12.20
2019-04-06T17:16:59.456Z,13.23
2019-04-06T17:19:52.684Z,13.87
2019-04-06T17:22:33.577Z,13.67
2019-04-06T17:25:17.037Z,13.00
2019-04-06T17:28:20.024Z,14.13
2019-04-06T17:31:11.856Z,14.13
2019-04-06T17:33:59.071Z,14.83
2019-04-06T17:36:43.494Z,14.87
2019-04-06T17:39:33.812Z,14.60
2019-04-06T17:42:13.132Z,15.43
2019-04-06T17:45:01.091Z,18.53
2019-04-06T17:47:47.853Z,19.37
2019-04-06T17:50:41.231Z,16.67
2019-04-06T17:53:20.146Z,14.53
2019-04-06T17:56:12.571Z,16.03
2019-04-06T17:59:09.149Z,16.43
2019-04-06T18:01:51.079Z,17.83
2019-04-06T18:04:53.310Z,17.87
2019-04-06T18:07:32.924Z,19.07
2019-04-06T18:10:23.088Z,19.87
2019-04-06T18:13:07.471Z,19.77
2019-04-06T18:15:36.158Z,19.90
2019-04-06T18:18:07.723Z,17.57
2019-04-06T18:20:35.865Z,19.70
2019-04-06T18:23:03.925Z,20.97
2019-04-06T18:25:33.190Z,19.03
2019-04-06T18:28:07.156Z,20.67
2019-04-06T18:30:35.117Z,20.73
2019-04-06T18:33:13.869Z,21.53
2019-04-06T18:35:42.800Z,20.23
2019-04-06T18:38:21.042Z,18.73
2019-04-06T18:40:49.101Z,18.77
2019-04-06T18:43:17.142Z,18.57
2019-04-06T18:45:45.112Z,18.20
2019-04-06T18:48:13.308Z,18.27
2019-04-06T18:50:41.243Z,18.83
2019-04-06T18:53:09.060Z,18.67
2019-04-06T18:55:36.996Z,18.23
2019-04-06T18:58:11.665Z,18.37
2019-04-06T19:00:35.709Z,19.03
2019-04-06T19:03:12.751Z,17.93
2019-04-06T19:05:34.534Z,19.13
2019-04-06T19:08:06.880Z,19.17
2019-04-06T19:10:36.445Z,20.40
2019-04-06T19:13:08.745Z,20.57
2019-04-06T19:15:41.565Z,19.53
2019-04-06T19:18:10.035Z,18.80
2019-04-06T19:20:38.386Z,18.53
2019-04-06T19:23:07.095Z,18.97
2019-04-06T19:25:35.499Z,20.63
2019-04-06T19:28:03.697Z,18.13
2019-04-06T19:30:31.943Z,18.00
2019-04-06T19:33:01.838Z,18.60
2019-04-06T19:35:30.645Z,19.20
2019-04-06T19:37:58.745Z,18.60
2019-04-06T19:40:27.181Z,19.97
2019-04-06T19:42:58.918Z,18.57
2019-04-06T19:45:27.105Z,17.80
2019-04-06T19:47:56.713Z,18.80
2019-04-06T19:50:25.947Z,21.23
2019-04-06T19:52:56.334Z,21.47
2019-04-06T19:55:25.564Z,21.67
2019-04-06T19:57:53.897Z,20.50
2019-04-06T20:00:24.542Z,21.40
2019-04-06T20:02:54.144Z,24.63
2019-04-06T20:05:22.302Z,26.37
2019-04-06T20:07:50.412Z,26.90
2019-04-06T20:10:19.383Z,27.50
2019-04-06T20:12:48.056Z,28.60
2019-04-06T20:15:17.001Z,30.13
2019-04-06T20:17:45.287Z,30.83
2019-04-06T20:20:13.514Z,29.03
2019-04-06T20:22:41.781Z,29.90
2019-04-06T20:25:14.041Z,29.47
2019-04-06T20:27:43.127Z,29.67
2019-04-06T20:30:12.982Z,27.87
2019-04-06T20:32:41.100Z,27.97
2019-04-06T20:35:09.706Z,27.37
2019-04-06T20:37:38.988Z,27.57
2019-04-06T20:40:09.639Z,27.57
2019-04-06T20:42:38.311Z,28.37
2019-04-06T20:45:06.611Z,27.37
2019-04-06T20:47:37.029Z,27.23
2019-04-06T20:50:05.725Z,26.80
2019-04-06T20:52:38.374Z,26.47
2019-04-06T20:55:06.968Z,27.50
2019-04-06T20:57:35.193Z,25.53
2019-04-06T21:00:04.400Z,26.47
2019-04-06T21:02:32.498Z,26.10
2019-04-06T21:05:04.073Z,26.50
2019-04-06T21:07:32.407Z,25.77
2019-04-06T21:10:00.879Z,26.37
2019-04-06T21:12:28.814Z,27.10
2019-04-06T21:14:56.905Z,29.30
2019-04-06T21:17:25.525Z,28.33
2019-04-06T21:19:53.430Z,26.70
2019-04-06T21:22:24.266Z,28.50
2019-04-06T21:24:52.756Z,27.63
2019-04-06T21:27:23.940Z,27.23
2019-04-06T21:29:51.755Z,26.90
2019-04-06T21:32:19.695Z,27.37
2019-04-06T21:34:48.325Z,27.77
2019-04-06T21:37:17.915Z,28.13
2019-04-06T21:39:46.770Z,28.23
2019-04-06T21:42:17.189Z,27.77
2019-04-06T21:44:48.040Z,28.37
2019-04-06T21:47:18.477Z,29.60
2019-04-06T21:49:46.744Z,28.13
2019-04-06T21:52:15.774Z,28.07
2019-04-06T21:54:44.157Z,27.80
2019-04-06T21:57:12.120Z,28.10
2019-04-06T21:59:40.519Z,30.50
2019-04-06T22:02:08.459Z,27.73
2019-04-06T22:04:36.499Z,28.33
2019-04-06T22:07:05.588Z,27.37
2019-04-06T22:09:33.910Z,28.50
2019-04-06T22:12:01.912Z,29.87
2019-04-06T22:14:30.550Z,29.20
2019-04-06T22:16:58.558Z,29.47
2019-04-06T22:19:26.839Z,28.83
2019-04-06T22:21:55.399Z,28.80
2019-04-06T22:24:23.968Z,28.90
2019-04-06T22:26:52.469Z,30.27
2019-04-06T22:29:24.062Z,28.97
2019-04-06T22:31:52.706Z,29.20
2019-04-06T22:34:34.792Z,29.17
2019-04-06T22:36:54.331Z,28.20
2019-04-06T22:39:23.104Z,28.53
2019-04-06T22:41:51.230Z,29.10
2019-04-06T22:44:19.168Z,28.73
2019-04-06T22:46:47.571Z,29.20
2019-04-06T22:49:16.108Z,28.73
2019-04-06T22:51:44.469Z,29.00
2019-04-06T22:54:12.824Z,27.67
2019-04-06T22:56:41.084Z,28.73
2019-04-06T22:59:11.295Z,27.33
2019-04-06T23:01:40.406Z,29.37
2019-04-06T23:04:46.693Z,26.40
2019-04-06T23:07:09.333Z,28.43
2019-04-06T23:09:38.332Z,27.73
2019-04-06T23:12:06.666Z,27.67
2019-04-06T23:14:35.097Z,28.60
2019-04-06T23:17:03.758Z,27.57
2019-04-06T23:19:32.587Z,28.83
2019-04-06T23:22:01.056Z,26.63
2019-04-06T23:24:30.708Z,26.87
2019-04-06T23:26:59.062Z,24.17
2019-04-06T23:29:27.962Z,27.40
2019-04-06T23:31:56.192Z,27.37
2019-04-06T23:34:27.159Z,27.73
2019-04-06T23:36:55.716Z,25.47
2019-04-06T23:39:25.251Z,26.67
2019-04-06T23:41:56.014Z,27.40
2019-04-06T23:44:26.054Z,25.83
2019-04-06T23:46:54.348Z,25.30
2019-04-06T23:49:26.023Z,25.70
2019-04-06T23:51:54.301Z,25.37
2019-04-06T23:54:22.869Z,25.93
2019-04-06T23:56:51.349Z,25.87
2019-04-06T23:59:20.017Z,27.10
